Time;durP1;ratioP1;P1;durP2;ratioP2;P2;SDS_P1;SDS_P2;PMS_P1;PMS_P2;Temp;Humidity;BMP_temperature;BMP_pressure;BME280_temperature;BME280_humidity;BME280_pressure;Samples;Min_cycle;Max_cycle;Signal;HPM_P1;HPM_P2
2022/07/17 00:01:21;;;;;;;9.05;3.25;;;;;;;13.61;72.68;102687.84;5047050;28;20534;-80
2022/07/17 00:03:46;;;;;;;6.72;3.00;;;;;;;13.57;72.70;102693.97;5049334;28;20055;-80
2022/07/17 00:06:13;;;;;;;7.50;3.15;;;;;;;13.51;73.14;102689.63;5047260;28;20094;-80
2022/07/17 00:08:38;;;;;;;6.20;3.10;;;;;;;13.43;73.50;102694.06;5043402;28;20048;-80
2022/07/17 00:11:04;;;;;;;7.45;3.33;;;;;;;13.42;73.87;102697.53;5048041;28;20029;-81
2022/07/17 00:13:29;;;;;;;7.68;3.38;;;;;;;13.38;73.99;102690.59;5033330;28;20431;-80
2022/07/17 00:15:54;;;;;;;5.72;3.00;;;;;;;13.34;74.06;102691.50;5033048;28;20036;-80
2022/07/17 00:18:20;;;;;;;7.03;3.42;;;;;;;13.32;74.21;102686.28;5044548;28;20104;-81
2022/07/17 00:20:45;;;;;;;8.30;3.20;;;;;;;13.27;74.49;102687.19;5041375;28;20036;-80
2022/07/17 00:23:10;;;;;;;7.00;3.33;;;;;;;13.24;74.32;102690.66;5035853;28;20491;-80
2022/07/17 00:25:36;;;;;;;9.10;3.53;;;;;;;13.21;74.72;102692.44;5043534;28;20052;-80
2022/07/17 00:28:02;;;;;;;8.30;3.40;;;;;;;13.18;74.97;102690.69;5049449;28;20108;-81
2022/07/17 00:30:28;;;;;;;7.70;3.55;;;;;;;13.16;75.35;102689.00;5052597;28;20048;-81
2022/07/17 00:32:53;;;;;;;9.60;3.60;;;;;;;13.16;75.35;102683.78;5050867;28;20033;-81
2022/07/17 00:35:19;;;;;;;9.90;4.05;;;;;;;13.13;75.04;102683.78;5045741;28;20475;-81
2022/07/17 00:37:46;;;;;;;9.68;3.83;;;;;;;13.10;75.55;102689.81;5041832;28;20044;-81
2022/07/17 00:40:18;;;;;;;7.35;3.75;;;;;;;13.11;75.67;102688.94;5032570;28;20017;-80
2022/07/17 00:42:43;;;;;;;7.38;3.80;;;;;;;13.06;75.78;102693.31;5042157;28;20071;-81
2022/07/17 00:45:10;;;;;;;8.05;3.58;;;;;;;13.03;75.92;102693.34;5050664;28;20024;-81
2022/07/17 00:47:50;;;;;;;9.18;3.45;;;;;;;13.00;75.57;102701.16;5049733;28;20483;-81
2022/07/17 00:50:16;;;;;;;7.88;3.53;;;;;;;12.95;75.86;102690.78;5038699;28;20025;-80
2022/07/17 00:52:42;;;;;;;8.85;3.65;;;;;;;12.90;76.73;102700.31;5042616;28;20024;-81
2022/07/17 00:55:08;;;;;;;9.30;3.58;;;;;;;12.88;76.64;102694.28;5037139;28;20017;-81
2022/07/17 00:57:36;;;;;;;7.57;3.88;;;;;;;12.84;77.19;102696.88;5049642;28;20017;-80
2022/07/17 01:00:06;;;;;;;9.88;3.67;;;;;;;12.81;77.04;102696.91;5051848;28;20068;-81
2022/07/17 01:02:32;;;;;;;8.43;3.78;;;;;;;12.78;77.33;102692.56;5050373;28;20112;-80
2022/07/17 01:04:57;;;;;;;9.65;3.70;;;;;;;12.81;77.92;102689.97;5045407;28;20128;-80
2022/07/17 01:07:22;;;;;;;8.53;3.70;;;;;;;12.77;76.55;102688.22;5034456;28;20108;-81
2022/07/17 01:09:48;;;;;;;9.85;3.55;;;;;;;12.77;77.39;102682.16;5041919;28;20338;-80
2022/07/17 01:12:13;;;;;;;9.57;3.88;;;;;;;12.78;76.71;102684.75;5045963;28;20017;-80
2022/07/17 01:14:39;;;;;;;7.05;3.72;;;;;;;12.81;77.71;102678.69;5040591;28;20074;-80
2022/07/17 01:17:05;;;;;;;6.55;3.83;;;;;;;12.79;77.64;102680.41;5041175;28;20033;-81
2022/07/17 01:19:30;;;;;;;8.75;3.90;;;;;;;12.81;77.89;102670.88;5049359;28;20074;-80
2022/07/17 01:21:56;;;;;;;12.33;4.33;;;;;;;12.82;77.82;102675.22;5050186;28;20029;-81
2022/07/17 01:24:21;;;;;;;7.75;3.70;;;;;;;12.77;77.57;102676.94;5042720;28;20283;-81
2022/07/17 01:26:48;;;;;;;8.88;3.90;;;;;;;12.74;77.37;102676.97;5040277;28;20372;-80
2022/07/17 01:29:14;;;;;;;9.98;4.05;;;;;;;12.72;77.88;102681.31;5046545;28;20542;-80
2022/07/17 01:31:41;;;;;;;10.23;3.97;;;;;;;12.68;78.16;102679.59;5038858;28;20044;-80
2022/07/17 01:34:08;;;;;;;9.73;4.05;;;;;;;12.68;78.12;102682.19;5047277;28;20035;-80
2022/07/17 01:36:34;;;;;;;10.52;4.20;;;;;;;12.61;77.82;102677.00;5049239;28;20029;-81
2022/07/17 01:39:00;;;;;;;7.75;4.07;;;;;;;12.61;78.45;102674.41;5041633;28;20033;-80
2022/07/17 01:41:25;;;;;;;9.68;4.53;;;;;;;12.59;78.47;102675.28;5050096;28;20035;-80
2022/07/17 01:43:50;;;;;;;10.70;4.20;;;;;;;12.59;78.60;102667.47;5051204;28;20033;-81
2022/07/17 01:46:16;;;;;;;10.38;4.60;;;;;;;12.53;78.77;102670.09;5051036;28;20499;-81
2022/07/17 01:48:41;;;;;;;9.02;4.57;;;;;;;12.56;78.61;102670.94;5039512;28;20174;-81
2022/07/17 01:51:07;;;;;;;9.70;5.18;;;;;;;12.54;79.18;102669.22;5038318;28;20056;-80
2022/07/17 01:53:32;;;;;;;9.07;4.25;;;;;;;12.50;78.88;102673.56;5039925;28;20033;-80
2022/07/17 01:55:57;;;;;;;9.27;4.55;;;;;;;12.51;79.30;102667.50;5045879;28;20029;-80
2022/07/17 01:58:23;;;;;;;9.90;4.75;;;;;;;12.44;79.03;102670.97;5044290;28;20024;-80
2022/07/17 02:00:48;;;;;;;10.75;4.80;;;;;;;12.43;79.36;102674.44;5043858;28;20100;-80
2022/07/17 02:03:14;;;;;;;9.25;4.50;;;;;;;12.40;79.27;102674.47;5043187;28;20024;-80
2022/07/17 02:05:39;;;;;;;13.17;5.00;;;;;;;12.39;79.47;102674.47;5050858;28;20068;-80
2022/07/17 02:08:05;;;;;;;13.63;4.90;;;;;;;12.33;79.52;102685.75;5046362;28;20299;-81
2022/07/17 02:10:30;;;;;;;11.43;4.90;;;;;;;12.30;79.95;102680.53;5040752;28;20022;-80
2022/07/17 02:12:57;;;;;;;10.00;4.68;;;;;;;12.27;80.17;102689.22;5046107;28;20124;-81
2022/07/17 02:15:23;;;;;;;9.27;4.55;;;;;;;12.26;80.04;102679.69;5043138;28;20490;-80
2022/07/17 02:17:48;;;;;;;10.52;4.63;;;;;;;12.22;79.82;102677.94;5039816;28;20037;-81
2022/07/17 02:20:14;;;;;;;10.45;5.05;;;;;;;12.23;80.33;102681.41;5036808;28;20073;-80
2022/07/17 02:22:39;;;;;;;9.23;4.40;;;;;;;12.20;80.34;102682.28;5044016;28;20060;-80
2022/07/17 02:25:06;;;;;;;10.93;4.60;;;;;;;12.15;80.81;102684.00;5046966;28;20025;-80
2022/07/17 02:27:33;;;;;;;9.25;4.72;;;;;;;12.15;80.56;102689.22;5043737;28;20091;-80
2022/07/17 02:29:58;;;;;;;10.13;4.57;;;;;;;12.12;80.52;102683.16;5050439;28;20024;-80
2022/07/17 02:32:23;;;;;;;9.55;4.70;;;;;;;12.12;80.58;102677.97;5045237;28;20078;-80
2022/07/17 02:34:48;;;;;;;7.90;4.63;;;;;;;12.09;80.48;102680.53;5048848;28;20048;-80
2022/07/17 02:37:14;;;;;;;11.32;4.65;;;;;;;12.09;80.92;102681.41;5038034;28;20167;-80
2022/07/17 02:39:52;;;;;;;10.13;4.85;;;;;;;12.08;80.64;102690.06;5042122;28;20336;-80
2022/07/17 02:42:24;;;;;;;9.23;4.25;;;;;;;12.06;80.83;102688.38;5045166;28;20029;-80
2022/07/17 02:44:50;;;;;;;9.35;4.45;;;;;;;12.02;80.68;102679.69;5048775;28;20031;-80
2022/07/17 02:47:30;;;;;;;12.05;4.38;;;;;;;11.99;80.02;102677.09;5045472;28;20033;-80
2022/07/17 02:49:56;;;;;;;9.80;4.43;;;;;;;11.96;81.12;102676.22;5027937;28;20079;-80
2022/07/17 02:52:22;;;;;;;8.70;4.10;;;;;;;11.93;81.66;102665.84;5028660;28;20068;-81
2022/07/17 02:54:47;;;;;;;7.75;4.43;;;;;;;11.93;81.57;102673.63;5047345;28;20115;-80
2022/07/17 02:57:12;;;;;;;10.95;4.70;;;;;;;11.86;81.28;102672.78;5043772;28;20025;-81
2022/07/17 02:59:38;;;;;;;8.70;4.40;;;;;;;11.81;81.26;102680.53;5049118;28;20039;-81
2022/07/17 03:02:03;;;;;;;11.25;4.57;;;;;;;11.78;81.28;102675.38;5046916;28;20033;-80
2022/07/17 03:04:28;;;;;;;10.30;4.70;;;;;;;11.75;81.86;102680.53;5045733;28;20043;-80
2022/07/17 03:06:54;;;;;;;11.35;4.45;;;;;;;11.71;81.54;102683.09;5049233;28;20483;-80
2022/07/17 03:09:19;;;;;;;8.98;4.28;;;;;;;11.71;82.30;102683.09;5044105;28;20585;-81
2022/07/17 03:11:44;;;;;;;9.95;4.60;;;;;;;11.70;82.24;102683.97;5040129;28;20075;-80
2022/07/17 03:14:10;;;;;;;12.30;4.57;;;;;;;11.69;82.53;102685.69;5048447;28;20471;-80
2022/07/17 03:16:35;;;;;;;10.52;4.45;;;;;;;11.68;82.48;102694.34;5043564;28;20190;-81
2022/07/17 03:19:01;;;;;;;8.40;4.55;;;;;;;11.66;82.48;102690.03;5032391;28;20024;-80
2022/07/17 03:21:26;;;;;;;8.95;4.50;;;;;;;11.64;82.59;102692.63;5037275;28;20475;-81
2022/07/17 03:23:51;;;;;;;9.50;4.35;;;;;;;11.62;82.87;102696.94;5032949;28;20033;-80
2022/07/17 03:26:16;;;;;;;11.02;4.28;;;;;;;11.64;83.35;102692.63;5043928;28;20067;-81
2022/07/17 03:28:42;;;;;;;9.40;4.43;;;;;;;11.62;83.07;102699.53;5045373;28;20038;-81
2022/07/17 03:31:07;;;;;;;11.27;5.10;;;;;;;11.60;82.80;102696.06;5047310;28;20048;-80
2022/07/17 03:33:32;;;;;;;8.65;4.57;;;;;;;11.61;82.73;102696.94;5034396;28;20037;-81
2022/07/17 03:35:58;;;;;;;10.80;4.68;;;;;;;11.60;83.06;102696.06;5049560;28;20029;-80
2022/07/17 03:38:23;;;;;;;10.05;4.47;;;;;;;11.57;83.11;102690.88;5039751;28;20025;-81
2022/07/17 03:40:48;;;;;;;10.88;4.50;;;;;;;11.54;83.34;102682.19;5047390;28;20029;-81
2022/07/17 03:43:14;;;;;;;8.13;4.53;;;;;;;11.55;83.58;102678.75;5044832;28;20021;-81
2022/07/17 03:45:39;;;;;;;10.40;4.93;;;;;;;11.54;83.22;102683.06;5052850;28;20044;-81
2022/07/17 03:48:05;;;;;;;10.38;4.63;;;;;;;11.48;83.19;102689.13;5039302;28;20060;-81
2022/07/17 03:50:30;;;;;;;8.98;4.38;;;;;;;11.46;83.10;102680.47;5047665;28;20127;-81
2022/07/17 03:52:55;;;;;;;11.00;4.80;;;;;;;11.42;83.21;102680.47;5034827;28;20025;-81
2022/07/17 03:55:21;;;;;;;9.23;4.57;;;;;;;11.39;83.54;102681.34;5047962;28;20029;-81
2022/07/17 03:57:46;;;;;;;12.48;4.80;;;;;;;11.34;83.84;102679.56;5045191;28;20479;-81
2022/07/17 04:00:12;;;;;;;10.35;4.38;;;;;;;11.33;83.55;102683.03;5049737;28;20479;-81
2022/07/17 04:02:37;;;;;;;10.15;4.40;;;;;;;11.30;83.83;102689.09;5039524;28;20044;-81
2022/07/17 04:05:03;;;;;;;11.82;4.53;;;;;;;11.32;84.24;102694.28;5047999;28;20065;-81
2022/07/17 04:07:28;;;;;;;12.38;4.88;;;;;;;11.33;83.91;102702.06;5040557;28;20037;-81
2022/07/17 04:09:58;;;;;;;10.93;4.95;;;;;;;11.34;84.29;102698.59;5051527;28;20467;-81
2022/07/17 04:12:24;;;;;;;11.02;4.53;;;;;;;11.32;84.47;102709.88;5052718;28;20040;-81
2022/07/17 04:14:50;;;;;;;8.70;4.78;;;;;;;11.36;84.67;102714.19;5036851;28;20052;-81
2022/07/17 04:17:15;;;;;;;9.85;4.78;;;;;;;11.39;84.66;102706.44;5039486;28;20048;-81
2022/07/17 04:19:41;;;;;;;9.40;4.72;;;;;;;11.40;84.64;102705.53;5048017;28;20068;-81
2022/07/17 04:22:06;;;;;;;11.02;5.05;;;;;;;11.44;84.88;102707.31;5039790;28;20026;-81
2022/07/17 04:24:31;;;;;;;11.73;4.63;;;;;;;11.45;84.82;102711.63;5041397;28;20044;-81
2022/07/17 04:26:57;;;;;;;9.55;4.72;;;;;;;11.50;84.63;102717.69;5046055;28;20394;-81
2022/07/17 04:29:22;;;;;;;11.45;4.65;;;;;;;11.52;84.74;102712.53;5042883;28;20028;-81
2022/07/17 04:31:47;;;;;;;11.67;5.40;;;;;;;11.56;84.98;102714.25;5043291;28;20030;-81
2022/07/17 04:34:12;;;;;;;10.50;4.53;;;;;;;11.60;84.81;102703.84;5042014;28;20861;-81
2022/07/17 04:36:38;;;;;;;9.05;4.97;;;;;;;11.61;84.83;102700.41;5050853;28;20033;-81
2022/07/17 04:39:03;;;;;;;12.25;4.97;;;;;;;11.66;84.64;102701.31;5046636;28;20104;-81
2022/07/17 04:41:28;;;;;;;11.88;5.20;;;;;;;11.70;84.89;102705.63;5051157;28;20100;-81
2022/07/17 04:43:54;;;;;;;11.18;5.20;;;;;;;11.72;84.75;102709.09;5044180;28;20083;-81
2022/07/17 04:46:19;;;;;;;8.70;4.72;;;;;;;11.78;85.07;102711.72;5038882;28;20479;-81
2022/07/17 04:48:45;;;;;;;9.75;5.20;;;;;;;11.82;84.57;102713.47;5041349;28;20438;-81
2022/07/17 04:51:10;;;;;;;10.30;5.20;;;;;;;11.87;84.91;102719.53;5045482;28;20445;-81
2022/07/17 04:53:37;;;;;;;10.15;5.70;;;;;;;11.97;84.86;102717.81;5038737;28;20026;-81
2022/07/17 04:56:03;;;;;;;12.82;5.35;;;;;;;12.01;84.52;102716.09;5049801;28;20028;-81
2022/07/17 04:58:28;;;;;;;11.52;5.30;;;;;;;12.04;84.04;102710.88;5041901;28;20382;-81
2022/07/17 05:00:53;;;;;;;12.43;5.53;;;;;;;12.08;85.02;102726.47;5040771;28;20447;-81
2022/07/17 05:03:19;;;;;;;12.18;5.57;;;;;;;12.14;84.95;102723.91;5033778;28;20307;-81
2022/07/17 05:05:44;;;;;;;12.13;5.53;;;;;;;12.16;83.56;102718.66;5036584;28;20021;-81
2022/07/17 05:08:09;;;;;;;13.18;5.68;;;;;;;12.19;83.09;102721.28;5049970;28;20033;-81
2022/07/17 05:10:35;;;;;;;13.70;5.78;;;;;;;12.25;83.65;102716.94;5045456;28;20017;-81
2022/07/17 05:13:00;;;;;;;13.65;5.70;;;;;;;12.30;83.96;102719.53;5042180;28;20391;-81
2022/07/17 05:15:26;;;;;;;12.07;5.97;;;;;;;12.31;83.17;102717.81;5037655;28;20382;-81
2022/07/17 05:17:51;;;;;;;11.07;5.90;;;;;;;12.35;83.36;102722.16;5032803;28;20021;-81
2022/07/17 05:20:16;;;;;;;12.80;6.10;;;;;;;12.36;82.54;102719.53;5034315;28;20082;-81
2022/07/17 05:22:42;;;;;;;12.38;6.07;;;;;;;12.37;81.54;102729.06;5040465;28;20028;-81
2022/07/17 05:25:08;;;;;;;15.02;6.10;;;;;;;12.40;81.26;102726.47;5034421;28;20032;-81
2022/07/17 05:27:34;;;;;;;13.18;5.78;;;;;;;12.43;81.78;102720.38;5032472;28;20111;-81
2022/07/17 05:29:59;;;;;;;14.43;5.93;;;;;;;12.45;82.62;102706.53;5037348;28;20063;-81
2022/07/17 05:32:24;;;;;;;10.57;5.75;;;;;;;12.54;82.68;102716.06;5030756;28;20491;-81
2022/07/17 05:34:50;;;;;;;11.52;6.20;;;;;;;12.62;83.43;102716.91;5031984;28;20128;-81
2022/07/17 05:37:15;;;;;;;13.27;6.10;;;;;;;12.66;83.20;102719.50;5030459;28;20029;-81
2022/07/17 05:39:40;;;;;;;13.70;5.88;;;;;;;12.75;83.91;102712.53;5028559;28;20390;-81
2022/07/17 05:42:06;;;;;;;11.70;5.55;;;;;;;12.83;83.55;102719.44;5033725;28;20051;-81
2022/07/17 05:44:31;;;;;;;11.52;6.10;;;;;;;12.88;83.54;102727.25;5041663;28;20387;-81
2022/07/17 05:46:57;;;;;;;11.93;5.65;;;;;;;12.92;83.13;102719.41;5036016;28;20029;-81
2022/07/17 05:49:22;;;;;;;13.40;6.05;;;;;;;12.99;84.15;102718.53;5044491;28;20066;-81
2022/07/17 05:51:47;;;;;;;10.65;5.90;;;;;;;13.03;83.47;102709.81;5029985;28;20025;-81
2022/07/17 05:54:13;;;;;;;13.70;6.00;;;;;;;13.10;83.88;102709.81;5026767;28;20531;-81
2022/07/17 05:56:38;;;;;;;15.15;6.40;;;;;;;13.15;84.38;102706.34;5031562;28;20283;-81
2022/07/17 05:59:03;;;;;;;13.25;5.80;;;;;;;13.19;82.77;102707.19;5032592;28;20025;-81
2022/07/17 06:01:29;;;;;;;12.50;6.25;;;;;;;13.26;83.54;102709.75;5028575;28;20095;-81
2022/07/17 06:03:54;;;;;;;12.15;5.70;;;;;;;13.33;84.32;102715.78;5033653;28;20097;-81
2022/07/17 06:06:20;;;;;;;12.93;5.80;;;;;;;13.39;81.63;102707.94;5029827;28;20017;-81
2022/07/17 06:08:46;;;;;;;16.02;6.13;;;;;;;13.47;81.17;102705.31;5038264;28;20060;-81
2022/07/17 06:11:12;;;;;;;14.93;5.43;;;;;;;13.55;80.93;102703.53;5032153;28;20021;-81
2022/07/17 06:13:37;;;;;;;15.13;6.15;;;;;;;13.65;81.61;102697.34;5041287;28;20082;-82
2022/07/17 06:16:02;;;;;;;12.40;5.45;;;;;;;13.73;81.58;102698.19;5039194;28;20025;-81
2022/07/17 06:18:28;;;;;;;13.95;5.80;;;;;;;13.81;79.13;102701.59;5034071;28;20113;-81
2022/07/17 06:20:53;;;;;;;9.07;5.47;;;;;;;13.90;80.87;102690.25;5039059;28;20104;-81
2022/07/17 06:23:18;;;;;;;12.05;5.60;;;;;;;13.99;81.72;102696.22;5047922;28;20108;-81
2022/07/17 06:25:44;;;;;;;11.68;5.32;;;;;;;14.04;79.35;102694.47;5041312;28;20025;-82
2022/07/17 06:28:09;;;;;;;20.17;5.80;;;;;;;14.12;79.33;102697.03;5026826;28;20065;-81
2022/07/17 06:30:34;;;;;;;16.92;5.43;;;;;;;14.21;79.09;102705.63;5027910;28;20059;-81
2022/07/17 06:33:00;;;;;;;13.50;5.43;;;;;;;14.26;78.56;102709.94;5040131;28;20407;-81
2022/07/17 06:35:25;;;;;;;13.90;5.75;;;;;;;14.32;81.14;102720.31;5029972;28;20184;-81
2022/07/17 06:37:50;;;;;;;13.93;5.90;;;;;;;14.41;80.13;102720.25;5034784;28;20067;-82
2022/07/17 06:40:16;;;;;;;16.37;6.23;;;;;;;14.46;78.71;102718.47;5030977;28;20025;-81
2022/07/17 06:42:41;;;;;;;11.35;5.82;;;;;;;14.53;80.77;102709.72;5034334;28;20276;-81
2022/07/17 06:45:07;;;;;;;13.60;6.07;;;;;;;14.57;78.81;102707.03;5031008;28;20029;-81
2022/07/17 06:47:32;;;;;;;12.25;5.85;;;;;;;14.64;77.81;102718.28;5039881;28;20022;-81
2022/07/17 06:49:58;;;;;;;16.43;6.00;;;;;;;14.72;77.43;102719.06;5045229;28;20039;-80
2022/07/17 06:52:23;;;;;;;12.20;5.80;;;;;;;14.82;78.95;102732.88;5043935;28;20390;-80
2022/07/17 06:54:48;;;;;;;16.13;5.78;;;;;;;14.91;75.82;102735.38;5039873;28;20041;-80
2022/07/17 06:57:14;;;;;;;15.25;6.22;;;;;;;15.03;75.05;102738.72;5054482;28;20029;-81
2022/07/17 06:59:40;;;;;;;12.45;5.90;;;;;;;15.16;74.23;102746.41;5049359;28;20029;-81
2022/07/17 07:02:06;;;;;;;12.18;5.90;;;;;;;15.24;72.61;102747.19;5049813;28;20027;-81
2022/07/17 07:04:31;;;;;;;15.48;5.25;;;;;;;15.34;72.20;102747.06;5044256;28;20048;-81
2022/07/17 07:06:56;;;;;;;10.68;4.80;;;;;;;15.48;73.85;102746.88;5049883;28;20041;-81
2022/07/17 07:09:21;;;;;;;11.65;5.50;;;;;;;15.58;69.60;102743.28;5048473;28;20021;-80
2022/07/17 07:11:47;;;;;;;12.32;5.40;;;;;;;15.70;69.44;102753.53;5046570;28;20032;-80
2022/07/17 07:14:12;;;;;;;10.98;5.35;;;;;;;15.82;68.79;102756.88;5049747;28;20032;-80
2022/07/17 07:16:38;;;;;;;12.07;5.93;;;;;;;15.97;69.91;102767.09;5049376;28;20017;-80
2022/07/17 07:19:03;;;;;;;15.20;5.78;;;;;;;16.09;67.77;102761.69;5056615;28;20112;-80
2022/07/17 07:21:29;;;;;;;15.07;5.43;;;;;;;16.23;68.25;102762.34;5046716;28;20103;-80
2022/07/17 07:23:55;;;;;;;14.85;5.05;;;;;;;16.38;69.08;102755.97;5037282;28;20446;-80
2022/07/17 07:26:20;;;;;;;12.52;4.97;;;;;;;16.53;67.25;102755.69;5042389;28;20107;-80
2022/07/17 07:28:46;;;;;;;11.48;5.18;;;;;;;16.67;68.37;102755.47;5048469;28;20088;-80
2022/07/17 07:31:11;;;;;;;10.02;5.10;;;;;;;16.82;65.68;102748.22;5051440;28;20419;-81
2022/07/17 07:33:37;;;;;;;15.38;5.63;;;;;;;17.02;67.24;102744.31;5048113;28;20044;-82
2022/07/17 07:36:03;;;;;;;10.75;5.10;;;;;;;17.15;66.26;102744.03;5043644;28;20025;-80
2022/07/17 07:38:28;;;;;;;11.85;5.78;;;;;;;17.27;66.64;102742.91;5042033;28;20390;-80
2022/07/17 07:40:54;;;;;;;13.63;4.97;;;;;;;17.37;64.05;102745.31;5038470;28;20071;-80
2022/07/17 07:43:19;;;;;;;11.75;5.00;;;;;;;17.54;64.33;102746.69;5051863;28;20293;-81
2022/07/17 07:45:44;;;;;;;14.50;4.80;;;;;;;17.73;65.19;102743.69;5051304;28;20029;-81
2022/07/17 07:48:10;;;;;;;15.50;5.30;;;;;;;17.85;63.01;102753.03;5053338;28;20397;-80
2022/07/17 07:50:35;;;;;;;10.18;4.47;;;;;;;18.00;63.84;102744.78;5042449;28;20498;-80
2022/07/17 07:53:00;;;;;;;11.40;4.60;;;;;;;18.25;62.20;102755.53;5036691;28;20106;-81
2022/07/17 07:55:26;;;;;;;11.43;4.30;;;;;;;18.86;58.45;102743.44;5033407;28;20395;-81
2022/07/17 07:58:05;;;;;;;10.63;4.30;;;;;;;19.96;57.85;102755.03;5040133;28;20287;-81
2022/07/17 08:00:31;;;;;;;11.43;4.00;;;;;;;20.94;51.29;102757.84;5038931;28;20024;-81
2022/07/17 08:02:56;;;;;;;9.50;3.45;;;;;;;21.59;48.58;102750.06;5049236;28;20052;-81
2022/07/17 08:05:21;;;;;;;8.60;3.40;;;;;;;22.39;48.72;102755.63;5042698;28;20044;-81
2022/07/17 08:07:47;;;;;;;10.55;3.92;;;;;;;23.12;46.95;102755.91;5051173;28;20033;-82
2022/07/17 08:10:12;;;;;;;11.77;3.50;;;;;;;23.67;45.36;102753.34;5043449;28;20046;-82
2022/07/17 08:12:38;;;;;;;9.75;3.67;;;;;;;24.09;43.96;102755.66;5043123;28;20315;-81
2022/07/17 08:15:04;;;;;;;12.02;3.33;;;;;;;24.41;43.27;102754.09;5035471;28;20098;-82
2022/07/17 08:17:30;;;;;;;11.93;4.15;;;;;;;24.48;42.15;102751.97;5041037;28;20037;-82
2022/07/17 08:19:55;;;;;;;10.88;4.65;;;;;;;24.31;41.57;102755.47;5047598;28;20033;-82
2022/07/17 08:22:20;;;;;;;8.93;3.70;;;;;;;23.86;43.33;102755.97;5051505;28;20025;-81
2022/07/17 08:24:46;;;;;;;8.87;3.33;;;;;;;23.61;44.14;102753.63;5044363;28;20298;-81
2022/07/17 08:27:11;;;;;;;10.07;3.70;;;;;;;23.47;44.52;102751.63;5036868;28;20288;-81
2022/07/17 08:29:36;;;;;;;9.63;3.20;;;;;;;23.45;44.67;102750.84;5042074;28;20371;-81
2022/07/17 08:32:01;;;;;;;8.18;3.45;;;;;;;23.57;46.88;102744.97;5053472;28;20268;-81
2022/07/17 08:34:27;;;;;;;9.45;3.80;;;;;;;23.54;44.59;102753.06;5042984;28;20125;-81
2022/07/17 08:36:52;;;;;;;7.38;3.30;;;;;;;23.87;43.62;102755.03;5042835;28;20029;-81
2022/07/17 08:39:17;;;;;;;8.90;3.53;;;;;;;24.16;43.42;102748.25;5036289;28;20458;-81
2022/07/17 08:41:43;;;;;;;9.43;3.90;;;;;;;24.35;42.70;102749.09;5047312;28;21013;-81
2022/07/17 08:44:08;;;;;;;7.03;2.95;;;;;;;24.30;43.63;102753.75;5047900;28;20287;-81
2022/07/17 08:46:36;;;;;;;5.47;2.78;;;;;;;24.28;43.42;102747.69;5044988;28;20060;-81
2022/07/17 08:49:03;;;;;;;8.32;2.85;;;;;;;24.16;43.39;102746.47;5039980;28;20025;-82
2022/07/17 08:51:29;;;;;;;8.82;3.00;;;;;;;24.07;42.83;102754.91;5047611;28;20467;-82
2022/07/17 08:53:55;;;;;;;8.63;3.10;;;;;;;23.98;44.21;102758.00;5046913;28;20625;-82
2022/07/17 08:56:20;;;;;;;9.23;2.92;;;;;;;23.89;45.10;102759.31;5045178;28;20537;-82
2022/07/17 08:58:46;;;;;;;9.85;3.30;;;;;;;23.91;44.73;102751.28;5046853;28;20052;-82
2022/07/17 09:01:11;;;;;;;9.88;3.83;;;;;;;23.85;43.11;102749.81;5044533;28;20025;-82
2022/07/17 09:03:39;;;;;;;8.65;4.20;;;;;;;23.92;43.78;102750.34;5046579;28;20045;-82
2022/07/17 09:06:04;;;;;;;9.98;3.80;;;;;;;24.04;45.75;102747.09;5040931;28;20044;-82
2022/07/17 09:08:33;;;;;;;8.88;2.90;;;;;;;24.11;42.70;102739.69;5053651;28;20029;-82
2022/07/17 09:10:59;;;;;;;5.80;2.83;;;;;;;24.07;42.37;102732.84;5052977;28;20521;-82
2022/07/17 09:13:29;;;;;;;8.50;2.90;;;;;;;24.05;42.46;102740.88;5050857;28;20025;-81
2022/07/17 09:16:13;;;;;;;8.05;2.47;;;;;;;24.00;42.76;102742.91;5051807;28;20025;-81
2022/07/17 09:18:55;;;;;;;5.83;2.60;;;;;;;23.94;42.94;102743.19;5038979;28;20056;-81
2022/07/17 09:21:22;;;;;;;8.63;2.60;;;;;;;23.83;41.26;102737.56;5037099;28;20283;-82
2022/07/17 09:24:07;;;;;;;6.65;2.40;;;;;;;23.97;43.41;102743.91;5038515;28;20025;-81
2022/07/17 09:26:34;;;;;;;7.90;2.78;;;;;;;23.96;41.18;102743.97;5041845;28;20032;-82
2022/07/17 09:29:01;;;;;;;7.32;2.88;;;;;;;23.92;41.05;102747.72;5042350;28;20167;-82
2022/07/17 09:31:28;;;;;;;7.60;2.95;;;;;;;23.90;41.48;102738.97;5034060;28;20025;-82
2022/07/17 09:33:55;;;;;;;6.28;2.63;;;;;;;23.91;41.90;102738.03;5037019;28;20025;-82
2022/07/17 09:36:21;;;;;;;8.05;2.92;;;;;;;24.06;40.76;102739.94;5047602;28;20017;-82
2022/07/17 09:38:51;;;;;;;10.15;3.15;;;;;;;24.05;41.03;102724.09;5049153;28;20475;-82
2022/07/17 09:41:20;;;;;;;6.95;2.45;;;;;;;23.92;42.50;102732.66;5049982;28;20037;-82
2022/07/17 09:43:52;;;;;;;9.25;2.88;;;;;;;24.00;42.52;102721.69;5042749;28;20025;-82
2022/07/17 09:46:27;;;;;;;8.70;2.72;;;;;;;24.19;41.96;102713.66;5049054;28;20029;-82
2022/07/17 09:48:59;;;;;;;8.02;2.47;;;;;;;24.42;42.62;102724.00;5046449;28;20129;-82
2022/07/17 09:51:27;;;;;;;4.95;2.50;;;;;;;24.54;42.50;102727.78;5049841;28;20029;-82
2022/07/17 09:53:55;;;;;;;7.63;2.67;;;;;;;24.32;37.43;102739.50;5050374;28;20029;-81
2022/07/17 09:56:22;;;;;;;6.93;3.08;;;;;;;23.98;37.69;102735.00;5050511;28;20032;-82
2022/07/17 09:58:51;;;;;;;6.53;2.60;;;;;;;23.85;38.87;102730.41;5052402;28;20036;-82
2022/07/17 10:01:17;;;;;;;6.38;2.60;;;;;;;23.75;38.79;102731.78;5050736;28;20282;-82
2022/07/17 10:03:44;;;;;;;7.60;2.60;;;;;;;23.78;40.15;102728.97;5046182;28;20523;-82
2022/07/17 10:06:11;;;;;;;8.55;2.20;;;;;;;23.84;39.74;102731.34;5052176;28;20514;-81
2022/07/17 10:08:37;;;;;;;6.47;2.38;;;;;;;23.83;38.29;102735.75;5049294;28;20439;-81
2022/07/17 10:11:05;;;;;;;7.97;2.13;;;;;;;23.85;37.46;102741.00;5050793;28;20394;-81
2022/07/17 10:13:31;;;;;;;8.07;2.45;;;;;;;23.95;37.67;102743.09;5050594;28;20116;-81
2022/07/17 10:15:56;;;;;;;6.00;2.10;;;;;;;23.96;37.76;102736.88;5048938;28;20459;-81
2022/07/17 10:18:34;;;;;;;7.63;2.70;;;;;;;24.01;38.42;102728.72;5050724;28;20051;-81
2022/07/17 10:21:10;;;;;;;5.88;2.17;;;;;;;24.12;37.54;102736.13;5050210;28;20061;-81
2022/07/17 10:23:36;;;;;;;5.50;2.50;;;;;;;24.00;37.84;102734.94;5048176;28;20044;-81
2022/07/17 10:26:02;;;;;;;8.00;2.80;;;;;;;24.08;39.79;102737.22;5051584;28;20124;-81
2022/07/17 10:28:45;;;;;;;11.00;2.70;;;;;;;24.30;40.20;102733.41;5051650;28;20102;-81
2022/07/17 10:31:22;;;;;;;6.70;2.30;;;;;;;24.42;39.43;102739.03;5044371;28;20037;-81
2022/07/17 10:34:05;;;;;;;7.80;2.53;;;;;;;24.62;41.25;102729.09;5043437;28;20534;-81
2022/07/17 10:36:38;;;;;;;7.75;2.58;;;;;;;24.76;39.91;102731.03;5031217;28;20090;-81
2022/07/17 10:39:10;;;;;;;6.53;2.40;;;;;;;24.75;40.35;102726.66;5039632;28;20028;-81
2022/07/17 10:41:36;;;;;;;7.00;2.35;;;;;;;24.49;37.40;102730.69;5043225;28;20033;-81
2022/07/17 10:44:01;;;;;;;7.72;2.33;;;;;;;24.22;39.26;102726.81;5039482;28;20058;-81
2022/07/17 10:46:28;;;;;;;6.85;2.30;;;;;;;24.08;38.84;102727.47;5045072;28;20048;-81
2022/07/17 10:48:55;;;;;;;6.05;2.45;;;;;;;24.09;39.17;102723.03;5048978;28;20021;-81
2022/07/17 10:51:23;;;;;;;7.20;2.50;;;;;;;24.03;38.54;102724.19;5051343;28;20071;-81
2022/07/17 10:53:49;;;;;;;7.25;2.40;;;;;;;23.95;39.85;102729.03;5051454;28;20021;-81
2022/07/17 10:56:14;;;;;;;7.13;2.33;;;;;;;23.91;39.69;102725.66;5049615;28;20016;-81
2022/07/17 10:58:41;;;;;;;9.65;2.50;;;;;;;23.86;39.00;102729.47;5049667;28;20024;-81
2022/07/17 11:01:13;;;;;;;5.88;2.35;;;;;;;23.95;41.13;102729.03;5041099;28;20478;-81
2022/07/17 11:03:50;;;;;;;6.82;2.35;;;;;;;24.08;39.75;102730.13;5051350;28;20037;-81
2022/07/17 11:06:25;;;;;;;6.22;2.28;;;;;;;24.29;41.78;102733.50;5050160;28;20029;-81
2022/07/17 11:08:53;;;;;;;7.40;2.58;;;;;;;24.37;38.53;102728.66;5051548;28;20116;-81
2022/07/17 11:11:22;;;;;;;8.88;2.60;;;;;;;24.49;39.98;102725.38;5049992;28;20390;-81
2022/07/17 11:13:48;;;;;;;7.97;2.40;;;;;;;24.62;39.97;102715.00;5048088;28;20028;-81
2022/07/17 11:16:24;;;;;;;7.95;2.20;;;;;;;24.48;39.60;102715.72;5049464;28;20027;-81
2022/07/17 11:18:50;;;;;;;9.68;2.63;;;;;;;24.56;38.69;102715.31;5049894;28;20294;-81